Time;durP1;ratioP1;P1;durP2;ratioP2;P2;SDS_P1;SDS_P2;PMS_P1;PMS_P2;Temp;Humidity;BMP_temperature;BMP_pressure;BME280_temperature;BME280_humidity;BME280_pressure;Samples;Min_cycle;Max_cycle;Signal;HPM_P1;HPM_P2
2023/08/19 00:01:33;;;;;;;25.85;23.25;;;20.30;99.90;;;;;;5099137;27;20131;-64
2023/08/19 00:04:00;;;;;;;25.80;23.20;;;20.30;99.90;;;;;;5116026;27;20122;-64
2023/08/19 00:06:34;;;;;;;25.13;22.50;;;20.40;99.90;;;;;;5115552;27;20043;-63
2023/08/19 00:09:03;;;;;;;26.70;23.90;;;20.40;99.90;;;;;;5115905;27;20091;-64
2023/08/19 00:11:29;;;;;;;24.67;22.38;;;20.40;99.90;;;;;;5115844;27;20390;-64
2023/08/19 00:13:55;;;;;;;24.25;21.77;;;20.40;99.90;;;;;;5115724;27;20038;-65
2023/08/19 00:16:20;;;;;;;25.15;22.65;;;20.40;99.90;;;;;;5097931;27;20043;-63
2023/08/19 00:18:46;;;;;;;24.63;22.33;;;20.40;99.90;;;;;;5134166;27;20073;-65
2023/08/19 00:21:12;;;;;;;25.98;22.35;;;20.40;99.90;;;;;;5115388;27;20168;-65
2023/08/19 00:23:37;;;;;;;25.05;22.70;;;20.40;99.90;;;;;;5134151;27;20477;-64
2023/08/19 00:26:03;;;;;;;24.10;21.90;;;20.40;99.90;;;;;;5115594;27;20050;-64
2023/08/19 00:28:28;;;;;;;23.65;21.45;;;20.40;99.90;;;;;;5098329;27;20043;-64
2023/08/19 00:30:54;;;;;;;23.65;21.27;;;20.40;99.90;;;;;;5133793;27;20120;-64
2023/08/19 00:33:23;;;;;;;24.17;21.88;;;20.40;99.90;;;;;;5133571;27;20396;-64
2023/08/19 00:35:51;;;;;;;24.33;21.88;;;20.40;99.90;;;;;;5135688;27;20091;-64
2023/08/19 00:38:17;;;;;;;24.17;21.75;;;20.40;99.90;;;;;;5135666;27;20054;-64
2023/08/19 00:40:43;;;;;;;25.48;23.15;;;20.40;99.90;;;;;;5135721;27;20084;-64
2023/08/19 00:43:08;;;;;;;23.83;21.52;;;20.40;99.90;;;;;;5154482;27;20099;-63
2023/08/19 00:45:39;;;;;;;25.63;23.13;;;20.40;99.90;;;;;;5135750;27;20039;-64
2023/08/19 00:48:06;;;;;;;24.95;22.50;;;20.40;99.90;;;;;;5154323;27;20038;-64
2023/08/19 00:50:32;;;;;;;25.48;22.90;;;20.40;99.90;;;;;;5135367;27;20037;-64
2023/08/19 00:52:58;;;;;;;22.95;20.75;;;20.40;99.90;;;;;;5135571;27;20030;-63
2023/08/19 00:55:23;;;;;;;24.45;22.15;;;20.40;99.90;;;;;;5134939;27;20034;-64
2023/08/19 00:57:50;;;;;;;24.40;21.85;;;20.40;99.90;;;;;;5135318;27;20039;-65
2023/08/19 01:00:16;;;;;;;24.30;21.98;;;20.40;99.90;;;;;;5135974;27;20537;-64
2023/08/19 01:02:42;;;;;;;24.40;21.55;;;20.40;99.90;;;;;;5135139;27;20046;-64
2023/08/19 01:05:08;;;;;;;25.55;22.95;;;20.40;99.90;;;;;;5154424;27;20045;-64
2023/08/19 01:07:39;;;;;;;24.38;22.02;;;20.40;99.90;;;;;;5135139;27;20520;-64
2023/08/19 01:10:30;;;;;;;24.48;22.02;;;20.40;99.90;;;;;;5135205;27;20397;-64
2023/08/19 01:12:59;;;;;;;24.30;22.00;;;20.40;99.90;;;;;;5135095;27;20070;-64
2023/08/19 01:15:28;;;;;;;23.02;20.83;;;20.40;99.90;;;;;;5134969;27;20054;-63
2023/08/19 01:17:55;;;;;;;22.55;20.45;;;20.40;99.90;;;;;;5135050;27;20046;-64
2023/08/19 01:20:23;;;;;;;24.83;21.95;;;20.40;99.90;;;;;;5135008;27;20107;-64
2023/08/19 01:23:14;;;;;;;24.40;22.02;;;20.40;99.90;;;;;;5134862;27;20039;-64
2023/08/19 01:25:42;;;;;;;22.20;19.92;;;20.40;99.90;;;;;;5134644;27;20087;-64
2023/08/19 01:28:08;;;;;;;22.55;20.45;;;20.30;99.90;;;;;;5134783;27;20153;-64
2023/08/19 01:30:34;;;;;;;23.02;20.83;;;20.30;99.90;;;;;;5134894;27;20038;-64
2023/08/19 01:33:03;;;;;;;22.75;20.52;;;20.30;99.90;;;;;;5117330;27;20085;-64
2023/08/19 01:35:35;;;;;;;23.65;21.35;;;20.30;99.90;;;;;;5134646;27;20037;-64
2023/08/19 01:38:23;;;;;;;23.85;21.30;;;20.30;99.90;;;;;;5134294;27;20046;-63
2023/08/19 01:40:50;;;;;;;23.13;20.88;;;20.30;99.90;;;;;;5134561;27;20047;-65
2023/08/19 01:43:17;;;;;;;23.02;20.83;;;20.30;99.90;;;;;;5134536;27;20045;-64
2023/08/19 01:45:42;;;;;;;23.20;20.92;;;20.30;99.90;;;;;;5134513;27;20042;-64
2023/08/19 01:48:08;;;;;;;22.85;20.40;;;20.30;99.90;;;;;;5134472;27;20141;-65
2023/08/19 01:50:34;;;;;;;23.38;21.10;;;20.20;99.90;;;;;;5134209;27;20038;-65
2023/08/19 01:53:00;;;;;;;23.20;20.92;;;20.20;99.90;;;;;;5117135;27;20374;-64
2023/08/19 01:55:26;;;;;;;22.17;20.17;;;20.20;99.90;;;;;;5134326;27;20074;-65
2023/08/19 01:57:51;;;;;;;21.27;19.17;;;20.20;99.90;;;;;;5133868;27;20495;-63
2023/08/19 02:00:17;;;;;;;21.40;19.27;;;20.20;99.90;;;;;;5134150;27;20034;-65
2023/08/19 02:02:43;;;;;;;21.45;19.38;;;20.20;99.90;;;;;;5134214;27;20408;-64
2023/08/19 02:05:13;;;;;;;21.20;19.08;;;20.10;99.90;;;;;;5134081;27;20034;-64
2023/08/19 02:07:39;;;;;;;23.35;18.90;;;20.10;99.90;;;;;;5133800;27;20034;-63
2023/08/19 02:10:06;;;;;;;21.48;19.42;;;20.10;99.90;;;;;;5134110;27;20039;-65
2023/08/19 02:12:32;;;;;;;20.77;18.65;;;20.10;99.90;;;;;;5134160;27;20046;-64
2023/08/19 02:14:57;;;;;;;21.60;19.50;;;20.10;99.90;;;;;;5133880;27;20064;-63
2023/08/19 02:17:23;;;;;;;21.02;18.85;;;20.10;99.90;;;;;;5152548;27;20473;-64
2023/08/19 02:19:48;;;;;;;21.58;19.45;;;20.10;99.90;;;;;;5133773;27;20046;-64
2023/08/19 02:22:17;;;;;;;21.77;19.58;;;20.10;99.90;;;;;;5152301;27;20030;-64
2023/08/19 02:24:42;;;;;;;22.50;20.30;;;20.10;99.90;;;;;;5152402;27;20111;-64
2023/08/19 02:27:08;;;;;;;21.75;19.52;;;20.10;99.90;;;;;;5134019;27;20172;-64
2023/08/19 02:29:34;;;;;;;22.20;20.02;;;20.10;99.90;;;;;;5113408;27;20379;-63
2023/08/19 02:32:00;;;;;;;22.38;20.15;;;20.20;99.90;;;;;;5113383;27;20138;-64
2023/08/19 02:34:26;;;;;;;21.90;19.90;;;20.20;99.90;;;;;;5112985;27;20172;-63
2023/08/19 02:36:52;;;;;;;21.95;19.75;;;20.20;99.90;;;;;;5131237;27;20064;-64
2023/08/19 02:39:17;;;;;;;21.13;18.98;;;20.20;99.90;;;;;;5131605;27;20394;-64
2023/08/19 02:41:43;;;;;;;21.15;19.15;;;20.20;99.90;;;;;;5131832;27;20486;-63
2023/08/19 02:44:09;;;;;;;20.90;18.98;;;20.20;99.90;;;;;;5113153;27;20038;-64
2023/08/19 02:46:34;;;;;;;20.95;18.95;;;20.20;99.90;;;;;;5112871;27;20036;-64
2023/08/19 02:49:00;;;;;;;21.83;19.73;;;20.20;99.90;;;;;;5112856;27;20031;-63
2023/08/19 02:51:25;;;;;;;22.40;20.05;;;20.20;99.90;;;;;;5113123;27;20474;-64
2023/08/19 02:53:51;;;;;;;21.23;19.13;;;20.30;99.90;;;;;;5131159;27;20031;-64
2023/08/19 02:56:17;;;;;;;20.67;18.45;;;20.30;99.90;;;;;;5113048;27;20088;-63
2023/08/19 02:58:42;;;;;;;19.98;17.67;;;20.30;99.90;;;;;;5113254;27;20035;-64
2023/08/19 03:01:12;;;;;;;19.27;17.48;;;20.30;99.90;;;;;;5112763;27;20047;-64
2023/08/19 03:03:37;;;;;;;19.75;17.50;;;20.30;99.90;;;;;;5095606;27;20051;-63
2023/08/19 03:06:03;;;;;;;20.25;18.25;;;20.30;99.90;;;;;;5131090;27;20560;-65
2023/08/19 03:08:29;;;;;;;21.00;19.00;;;20.30;99.90;;;;;;5095340;27;20047;-64
2023/08/19 03:10:54;;;;;;;19.70;17.80;;;20.40;99.90;;;;;;5112718;27;20509;-64
2023/08/19 03:13:20;;;;;;;19.63;17.73;;;20.30;99.90;;;;;;5131244;27;20039;-64
2023/08/19 03:15:46;;;;;;;20.02;18.05;;;20.30;99.90;;;;;;5112865;27;20043;-64
2023/08/19 03:18:14;;;;;;;19.33;17.52;;;20.30;99.90;;;;;;5115602;27;20469;-64
2023/08/19 03:20:41;;;;;;;18.98;17.17;;;20.30;99.90;;;;;;5136098;27;20409;-64
2023/08/19 03:23:06;;;;;;;19.00;16.98;;;20.30;99.90;;;;;;5137479;27;20409;-64
2023/08/19 03:25:32;;;;;;;17.83;16.02;;;20.30;99.90;;;;;;5137403;27;20043;-65
2023/08/19 03:27:58;;;;;;;18.65;16.75;;;20.30;99.90;;;;;;5137150;27;20122;-64
2023/08/19 03:30:23;;;;;;;17.70;16.00;;;20.30;99.90;;;;;;5155555;27;20117;-64
2023/08/19 03:32:49;;;;;;;18.10;16.17;;;20.30;99.90;;;;;;5137114;27;20397;-64
2023/08/19 03:35:15;;;;;;;17.85;16.15;;;20.30;99.90;;;;;;5137182;27;20042;-64
2023/08/19 03:37:41;;;;;;;20.13;16.80;;;20.30;99.90;;;;;;5136794;27;20054;-64
2023/08/19 03:40:07;;;;;;;18.63;16.73;;;20.30;99.90;;;;;;5136947;27;20126;-64
2023/08/19 03:42:33;;;;;;;17.23;15.52;;;20.40;99.90;;;;;;5136584;27;20080;-63
2023/08/19 03:44:58;;;;;;;17.38;15.77;;;20.40;99.90;;;;;;5137300;27;20551;-64
2023/08/19 03:47:24;;;;;;;18.25;16.25;;;20.40;99.90;;;;;;5136477;27;20042;-64
2023/08/19 03:49:49;;;;;;;17.38;15.55;;;20.50;99.90;;;;;;5137153;27;20074;-65
2023/08/19 03:52:15;;;;;;;17.52;15.80;;;20.40;99.90;;;;;;5119427;27;20031;-65
2023/08/19 03:54:41;;;;;;;17.38;15.50;;;20.40;99.90;;;;;;5136588;27;20067;-63
2023/08/19 03:57:06;;;;;;;18.05;16.17;;;20.40;99.90;;;;;;5136688;27;20052;-64
2023/08/19 03:59:33;;;;;;;17.02;15.25;;;20.40;99.90;;;;;;5155018;27;20142;-64
2023/08/19 04:01:58;;;;;;;17.92;16.15;;;20.40;99.90;;;;;;5136552;27;20038;-65
2023/08/19 04:04:24;;;;;;;16.65;15.05;;;20.40;99.90;;;;;;5118757;27;20057;-64
2023/08/19 04:06:50;;;;;;;18.52;15.52;;;20.40;99.90;;;;;;5136563;27;20042;-65
2023/08/19 04:09:15;;;;;;;16.58;14.93;;;20.40;99.90;;;;;;5136603;27;20425;-64
2023/08/19 04:11:41;;;;;;;15.68;14.18;;;20.50;99.90;;;;;;5154917;27;20042;-63
2023/08/19 04:14:06;;;;;;;16.35;14.70;;;20.50;99.90;;;;;;5136489;27;20043;-64
2023/08/19 04:16:32;;;;;;;17.13;15.07;;;20.40;99.90;;;;;;5136026;27;20500;-63
2023/08/19 04:18:59;;;;;;;15.88;14.25;;;20.40;99.90;;;;;;5136433;27;20532;-64
2023/08/19 04:21:25;;;;;;;15.73;14.13;;;20.50;99.90;;;;;;5136059;27;20042;-64
2023/08/19 04:23:50;;;;;;;16.27;14.70;;;20.50;99.90;;;;;;5154749;27;20042;-63
2023/08/19 04:26:16;;;;;;;15.23;13.55;;;20.50;99.90;;;;;;5154793;27;20509;-64
2023/08/19 04:28:42;;;;;;;16.63;13.88;;;20.50;99.90;;;;;;5134535;27;20110;-64
2023/08/19 04:31:09;;;;;;;16.35;14.45;;;20.50;99.90;;;;;;5136102;27;20027;-64
2023/08/19 04:33:35;;;;;;;17.10;14.77;;;20.50;99.90;;;;;;5135773;27;20035;-64
2023/08/19 04:36:02;;;;;;;15.95;14.35;;;20.50;99.90;;;;;;5154723;27;20089;-64
2023/08/19 04:38:28;;;;;;;14.93;13.52;;;20.60;99.90;;;;;;5154064;27;20460;-63
2023/08/19 04:40:53;;;;;;;16.55;13.80;;;20.60;99.90;;;;;;5135883;27;20106;-64
2023/08/19 04:43:19;;;;;;;17.52;14.73;;;20.60;99.90;;;;;;5136009;27;20039;-64
2023/08/19 04:45:45;;;;;;;16.45;14.65;;;20.70;99.90;;;;;;5135324;27;20400;-64
2023/08/19 04:48:11;;;;;;;14.27;12.88;;;20.70;99.90;;;;;;5135753;27;20038;-63
2023/08/19 04:50:37;;;;;;;13.98;12.65;;;20.70;99.90;;;;;;5135461;27;20126;-64
2023/08/19 04:53:03;;;;;;;13.88;12.63;;;20.70;99.90;;;;;;5135974;27;20153;-64
2023/08/19 04:55:32;;;;;;;14.75;13.25;;;20.70;99.90;;;;;;5154186;27;20038;-64
2023/08/19 04:57:57;;;;;;;14.15;12.57;;;20.80;99.90;;;;;;5135033;27;20078;-64
2023/08/19 05:00:23;;;;;;;15.25;12.95;;;20.80;99.90;;;;;;5135547;27;20433;-64
2023/08/19 05:02:49;;;;;;;14.90;12.50;;;20.80;99.90;;;;;;5135286;27;20047;-64
2023/08/19 05:05:15;;;;;;;13.95;12.43;;;20.80;99.90;;;;;;5135336;27;20445;-64
2023/08/19 05:07:41;;;;;;;13.95;12.45;;;20.90;99.90;;;;;;5134987;27;20039;-64
2023/08/19 05:10:07;;;;;;;13.52;12.18;;;20.90;99.90;;;;;;5135286;27;20074;-64
2023/08/19 05:12:33;;;;;;;14.05;12.40;;;20.90;99.90;;;;;;5138742;27;20446;-64
2023/08/19 05:14:58;;;;;;;15.13;12.20;;;20.90;99.90;;;;;;5134533;27;20057;-62
2023/08/19 05:17:24;;;;;;;13.60;12.20;;;20.90;99.90;;;;;;5135310;27;20088;-63
2023/08/19 05:19:50;;;;;;;15.57;12.35;;;20.90;99.90;;;;;;5153582;27;20042;-62
2023/08/19 05:22:15;;;;;;;13.90;12.50;;;20.90;99.90;;;;;;5135156;27;20460;-63
2023/08/19 05:24:41;;;;;;;14.05;12.75;;;20.90;99.90;;;;;;5134895;27;20057;-62
2023/08/19 05:27:07;;;;;;;14.73;12.48;;;20.90;99.90;;;;;;5153429;27;20366;-63
2023/08/19 05:29:32;;;;;;;13.88;12.45;;;20.90;99.90;;;;;;5153407;27;20030;-63
2023/08/19 05:31:58;;;;;;;15.52;12.68;;;20.90;99.90;;;;;;5114401;27;20066;-63
2023/08/19 05:34:27;;;;;;;14.82;13.27;;;20.90;99.90;;;;;;5114750;27;20031;-63
2023/08/19 05:36:53;;;;;;;14.55;13.13;;;20.90;99.90;;;;;;5113920;27;20042;-62
2023/08/19 05:39:19;;;;;;;14.15;12.85;;;20.90;99.90;;;;;;5110191;28;20061;-63
2023/08/19 05:41:44;;;;;;;14.88;13.40;;;20.90;99.90;;;;;;5110768;28;20379;-62
2023/08/19 05:44:10;;;;;;;14.07;12.60;;;20.90;99.90;;;;;;5110515;28;20040;-63
2023/08/19 05:46:36;;;;;;;15.75;12.68;;;20.90;99.90;;;;;;5110537;28;20040;-63
2023/08/19 05:49:01;;;;;;;14.50;12.75;;;20.90;99.90;;;;;;5093245;28;20070;-63
2023/08/19 05:51:27;;;;;;;14.45;12.95;;;20.90;99.90;;;;;;5111104;28;20474;-63
2023/08/19 05:54:00;;;;;;;14.60;13.15;;;20.90;99.90;;;;;;5109804;28;20048;-63
2023/08/19 05:56:26;;;;;;;14.82;12.52;;;21.00;99.90;;;;;;5110626;28;20046;-63
2023/08/19 05:58:51;;;;;;;14.20;12.77;;;21.00;99.90;;;;;;5111301;27;20039;-63
2023/08/19 06:01:17;;;;;;;13.68;12.27;;;21.00;99.90;;;;;;5110316;27;20040;-63
2023/08/19 06:03:43;;;;;;;14.90;13.40;;;21.00;99.90;;;;;;5110199;28;20459;-63
2023/08/19 06:06:08;;;;;;;15.13;13.05;;;21.00;99.90;;;;;;5111282;28;20559;-62
2023/08/19 06:08:34;;;;;;;15.13;12.90;;;21.00;99.90;;;;;;5110191;28;20115;-63
2023/08/19 06:11:07;;;;;;;14.88;13.32;;;21.00;99.90;;;;;;5109954;28;20040;-63
2023/08/19 06:13:36;;;;;;;13.45;11.98;;;21.10;99.90;;;;;;5110387;28;20526;-64
2023/08/19 06:16:06;;;;;;;13.95;12.50;;;21.10;99.90;;;;;;5109784;28;20044;-63
2023/08/19 06:18:32;;;;;;;13.98;12.55;;;21.00;99.90;;;;;;5110125;28;20024;-63
2023/08/19 06:20:58;;;;;;;15.15;13.63;;;21.00;99.90;;;;;;5110223;28;20039;-65
2023/08/19 06:23:24;;;;;;;14.55;13.05;;;21.10;99.90;;;;;;5109870;28;20035;-65
2023/08/19 06:25:52;;;;;;;14.52;12.35;;;21.10;99.90;;;;;;5109773;28;20042;-65
2023/08/19 06:28:18;;;;;;;14.02;12.63;;;21.00;99.90;;;;;;5109702;28;20042;-63
2023/08/19 06:30:44;;;;;;;15.77;13.05;;;21.00;99.90;;;;;;5093208;28;20043;-63
2023/08/19 06:33:11;;;;;;;13.50;12.20;;;21.10;99.90;;;;;;5110799;28;20031;-65
2023/08/19 06:35:37;;;;;;;15.93;13.00;;;21.00;99.90;;;;;;5111099;28;20035;-64
2023/08/19 06:38:23;;;;;;;14.48;12.32;;;21.10;99.90;;;;;;5109532;28;20087;-63
2023/08/19 06:41:04;;;;;;;13.45;12.07;;;21.10;99.90;;;;;;5109744;28;20048;-62
2023/08/19 06:43:31;;;;;;;13.60;11.52;;;21.20;99.90;;;;;;5130992;27;20361;-62
2023/08/19 06:45:57;;;;;;;13.38;12.05;;;21.20;99.90;;;;;;5131428;27;20046;-63
2023/08/19 06:48:24;;;;;;;15.98;11.65;;;21.20;99.90;;;;;;5129303;27;20058;-62
2023/08/19 06:50:53;;;;;;;12.65;11.27;;;21.30;99.90;;;;;;5130194;27;20513;-64
2023/08/19 06:53:20;;;;;;;12.35;11.05;;;21.30;99.90;;;;;;5130804;28;20040;-62
2023/08/19 06:56:00;;;;;;;13.43;11.52;;;21.40;99.90;;;;;;5112603;28;20065;-62
2023/08/19 06:58:29;;;;;;;12.48;11.23;;;21.40;99.90;;;;;;5130082;28;20039;-63
2023/08/19 07:01:00;;;;;;;12.30;10.93;;;21.40;99.90;;;;;;5129631;28;20139;-62
2023/08/19 07:03:32;;;;;;;11.38;10.20;;;21.50;99.90;;;;;;5118459;28;20047;-63
2023/08/19 07:06:00;;;;;;;12.35;10.15;;;21.60;99.90;;;;;;5111004;28;20043;-63
2023/08/19 07:08:30;;;;;;;11.40;10.20;;;21.60;99.90;;;;;;5109339;28;20052;-64
2023/08/19 07:10:59;;;;;;;11.60;10.40;;;21.70;99.90;;;;;;5109537;28;20468;-63
2023/08/19 07:13:25;;;;;;;11.00;9.65;;;21.70;99.90;;;;;;5128636;28;20043;-63
2023/08/19 07:15:58;;;;;;;11.05;9.90;;;21.70;99.90;;;;;;5129651;28;20098;-63
2023/08/19 07:18:26;;;;;;;11.45;9.05;;;21.80;99.90;;;;;;5129541;28;20110;-62
2023/08/19 07:20:56;;;;;;;13.23;9.55;;;21.90;99.90;;;;;;5129789;28;20054;-63
2023/08/19 07:23:23;;;;;;;10.27;8.60;;;21.90;99.90;;;;;;5111245;28;20051;-63
2023/08/19 07:25:50;;;;;;;9.95;8.95;;;22.00;99.90;;;;;;5131166;28;20045;-63
2023/08/19 07:28:17;;;;;;;9.65;8.65;;;22.10;99.90;;;;;;5130736;28;20067;-63
2023/08/19 07:30:43;;;;;;;10.10;9.13;;;22.10;99.90;;;;;;5131002;28;20095;-62
2023/08/19 07:33:11;;;;;;;12.05;8.48;;;22.10;99.90;;;;;;5129506;28;20043;-63
2023/08/19 07:35:38;;;;;;;10.70;8.38;;;22.20;99.90;;;;;;5129539;28;20077;-62
2023/08/19 07:38:05;;;;;;;12.77;8.13;;;22.20;99.90;;;;;;5129622;28;20111;-63
2023/08/19 07:40:30;;;;;;;10.55;8.10;;;22.30;99.90;;;;;;5131047;28;20035;-63
2023/08/19 07:42:56;;;;;;;13.73;8.48;;;22.30;99.90;;;;;;5130882;28;20199;-63
2023/08/19 07:45:22;;;;;;;11.38;8.20;;;22.40;99.90;;;;;;5130874;28;20032;-63
2023/08/19 07:47:47;;;;;;;8.93;8.02;;;22.50;99.90;;;;;;5128850;28;20058;-63
2023/08/19 07:50:13;;;;;;;11.10;8.15;;;22.50;99.90;;;;;;5129471;28;20095;-63
2023/08/19 07:52:38;;;;;;;12.18;8.00;;;22.50;99.90;;;;;;5129653;28;20039;-63
2023/08/19 07:55:04;;;;;;;9.20;8.30;;;22.60;99.90;;;;;;5129944;28;20175;-62
2023/08/19 07:57:30;;;;;;;10.25;7.63;;;22.60;99.90;;;;;;5129377;28;20034;-63
2023/08/19 07:59:56;;;;;;;9.40;7.68;;;22.70;99.90;;;;;;5129409;28;20142;-63
2023/08/19 08:02:21;;;;;;;11.23;7.68;;;22.70;99.90;;;;;;5129278;27;20030;-63
2023/08/19 08:04:47;;;;;;;8.88;7.53;;;22.80;99.90;;;;;;5133042;27;20439;-63
2023/08/19 08:07:13;;;;;;;10.93;7.57;;;22.90;99.90;;;;;;5134226;27;20441;-63
2023/08/19 08:09:38;;;;;;;8.43;7.45;;;23.00;99.90;;;;;;5134177;27;20148;-63
2023/08/19 08:12:04;;;;;;;10.10;7.75;;;23.10;99.90;;;;;;5134408;27;20159;-62
2023/08/19 08:14:30;;;;;;;8.65;7.75;;;23.10;99.90;;;;;;5132650;27;20035;-63
2023/08/19 08:16:56;;;;;;;7.72;6.97;;;23.20;99.90;;;;;;5134339;27;20053;-63
2023/08/19 08:19:28;;;;;;;9.35;7.10;;;23.20;99.90;;;;;;5134008;27;20047;-62
2023/08/19 08:21:54;;;;;;;9.73;6.70;;;23.30;99.90;;;;;;5132770;27;20042;-63
2023/08/19 08:24:22;;;;;;;10.23;6.88;;;23.40;99.90;;;;;;5132664;27;20031;-63
2023/08/19 08:26:48;;;;;;;10.75;6.63;;;23.40;99.90;;;;;;5132380;27;20039;-63
2023/08/19 08:29:14;;;;;;;10.48;7.10;;;23.50;99.90;;;;;;5118806;27;20035;-63
2023/08/19 08:31:39;;;;;;;10.00;6.55;;;23.60;99.90;;;;;;5113213;28;20028;-62
2023/08/19 08:34:06;;;;;;;9.68;6.28;;;23.70;99.90;;;;;;5113552;27;20031;-67
2023/08/19 08:36:32;;;;;;;8.80;6.15;;;23.80;99.90;;;;;;5111763;28;20070;-63
2023/08/19 08:38:57;;;;;;;7.10;6.40;;;23.90;99.90;;;;;;5129723;27;20079;-63
2023/08/19 08:41:24;;;;;;;7.85;5.95;;;24.00;99.90;;;;;;5115315;27;20054;-63
2023/08/19 08:43:52;;;;;;;8.75;6.35;;;24.00;99.90;;;;;;5115042;27;20039;-63
2023/08/19 08:46:19;;;;;;;10.07;5.68;;;24.20;99.90;;;;;;5115103;27;20049;-63
2023/08/19 08:48:47;;;;;;;8.18;5.82;;;24.20;99.90;;;;;;5133255;27;20039;-63
2023/08/19 08:51:14;;;;;;;10.43;6.22;;;24.20;99.90;;;;;;5115250;27;20114;-63
2023/08/19 08:53:40;;;;;;;8.93;6.03;;;24.20;99.90;;;;;;5114992;27;20035;-63
2023/08/19 08:56:06;;;;;;;7.68;5.38;;;24.30;99.90;;;;;;5115123;27;20435;-63
2023/08/19 08:58:31;;;;;;;9.35;5.85;;;24.30;99.90;;;;;;5115028;27;20031;-63
2023/08/19 09:00:58;;;;;;;7.65;5.50;;;24.40;99.90;;;;;;5115065;27;20039;-63
2023/08/19 09:03:32;;;;;;;8.95;5.57;;;24.40;99.90;;;;;;5114967;27;20035;-63
2023/08/19 09:06:13;;;;;;;9.40;5.72;;;24.50;99.90;;;;;;5133162;27;20573;-63
2023/08/19 09:08:48;;;;;;;11.85;6.13;;;24.60;99.90;;;;;;5133220;27;20449;-63
2023/08/19 09:11:27;;;;;;;8.60;6.15;;;24.70;99.90;;;;;;5114660;27;20041;-63
2023/08/19 09:14:07;;;;;;;7.18;5.43;;;24.80;99.90;;;;;;5133613;27;20030;-63
2023/08/19 09:16:33;;;;;;;8.98;5.75;;;24.80;99.90;;;;;;5134638;27;20072;-63
2023/08/19 09:18:58;;;;;;;6.70;6.00;;;24.90;99.90;;;;;;5135142;27;20035;-63
2023/08/19 09:21:24;;;;;;;8.52;5.63;;;25.00;99.90;;;;;;5117521;27;20046;-63
2023/08/19 09:23:50;;;;;;;8.38;6.15;;;25.40;99.90;;;;;;5117242;27;20058;-63
2023/08/19 09:26:17;;;;;;;7.95;6.15;;;25.60;99.90;;;;;;5134818;27;20087;-63
2023/08/19 09:28:43;;;;;;;8.88;5.95;;;25.80;99.90;;;;;;5134712;27;20122;-63
2023/08/19 09:31:21;;;;;;;9.30;6.00;;;26.00;99.90;;;;;;5153674;27;20474;-63
2023/08/19 09:33:48;;;;;;;7.93;5.70;;;26.00;99.90;;;;;;5153158;27;20039;-63
2023/08/19 09:36:14;;;;;;;7.90;6.03;;;25.90;99.90;;;;;;5134759;27;20034;-63
2023/08/19 09:38:41;;;;;;;10.07;5.90;;;25.80;99.90;;;;;;5128861;27;20059;-63
2023/08/19 09:41:07;;;;;;;6.50;5.45;;;25.70;99.90;;;;;;5132562;27;20057;-63
2023/08/19 09:43:33;;;;;;;8.00;5.57;;;25.50;99.90;;;;;;5131144;27;20039;-63
2023/08/19 09:46:00;;;;;;;9.10;6.32;;;25.40;99.90;;;;;;5131022;27;20062;-63
2023/08/19 09:48:26;;;;;;;9.50;6.45;;;25.20;99.90;;;;;;5131091;27;20043;-63
2023/08/19 09:50:52;;;;;;;8.45;5.75;;;25.10;99.90;;;;;;5130419;27;20073;-63
2023/08/19 09:53:18;;;;;;;9.95;6.57;;;25.00;99.90;;;;;;5130919;27;20043;-63
2023/08/19 09:55:46;;;;;;;9.77;6.97;;;24.90;99.90;;;;;;5130993;27;20515;-63
2023/08/19 09:58:11;;;;;;;7.80;7.00;;;24.80;99.90;;;;;;5130953;27;20043;-63
2023/08/19 10:00:37;;;;;;;8.07;7.10;;;24.60;99.90;;;;;;5130887;27;20135;-63
2023/08/19 10:03:04;;;;;;;9.30;7.72;;;24.60;99.90;;;;;;5130082;27;20125;-63
2023/08/19 10:05:34;;;;;;;9.55;6.97;;;24.40;99.90;;;;;;5130825;27;20093;-63
2023/08/19 10:08:03;;;;;;;11.30;7.63;;;24.40;99.90;;;;;;5130621;27;20550;-63
2023/08/19 10:10:30;;;;;;;11.57;8.02;;;24.40;99.90;;;;;;5130709;27;20035;-63
2023/08/19 10:12:57;;;;;;;9.57;7.38;;;24.30;99.90;;;;;;5131745;27;20517;-64
2023/08/19 10:15:26;;;;;;;9.15;7.03;;;24.30;99.90;;;;;;5113587;27;20042;-64
2023/08/19 10:17:56;;;;;;;10.43;7.50;;;24.20;99.90;;;;;;5130362;27;20043;-63
2023/08/19 10:20:27;;;;;;;8.68;7.45;;;24.20;99.90;;;;;;5130768;27;20038;-63
2023/08/19 10:22:57;;;;;;;8.53;7.40;;;24.20;99.90;;;;;;5130432;27;20413;-63
2023/08/19 10:25:24;;;;;;;8.38;7.57;;;24.20;99.90;;;;;;5130680;27;20045;-63
2023/08/19 10:27:50;;;;;;;11.90;8.77;;;24.20;99.90;;;;;;5129235;27;20039;-63
2023/08/19 10:30:24;;;;;;;9.55;7.68;;;24.30;99.90;;;;;;5130576;27;20469;-63
2023/08/19 10:32:51;;;;;;;8.57;7.68;;;24.30;99.90;;;;;;5130514;27;20045;-63
2023/08/19 10:35:17;;;;;;;9.07;7.80;;;24.40;99.90;;;;;;5130432;27;20039;-63
2023/08/19 10:37:45;;;;;;;13.50;8.38;;;24.40;99.90;;;;;;5135494;27;20191;-63
2023/08/19 10:40:19;;;;;;;11.52;8.80;;;24.40;99.90;;;;;;5133331;27;20038;-63
2023/08/19 10:43:01;;;;;;;11.70;9.20;;;24.40;99.90;;;;;;5134105;27;20041;-63
2023/08/19 10:45:35;;;;;;;9.50;8.07;;;24.50;99.90;;;;;;5133436;27;20039;-62
2023/08/19 10:48:02;;;;;;;9.80;8.35;;;24.60;99.90;;;;;;5133444;27;20493;-63
2023/08/19 10:50:34;;;;;;;12.88;7.88;;;24.70;99.90;;;;;;5133727;27;20354;-62
2023/08/19 10:53:03;;;;;;;10.30;8.20;;;24.90;99.90;;;;;;5151994;27;20038;-63
2023/08/19 10:55:51;;;;;;;11.98;8.43;;;25.10;99.90;;;;;;5133403;27;20038;-63
2023/08/19 10:58:18;;;;;;;10.95;8.95;;;25.30;99.90;;;;;;5133293;27;20043;-63
2023/08/19 11:00:45;;;;;;;13.10;9.77;;;25.50;99.90;;;;;;5133922;27;20493;-63
2023/08/19 11:03:12;;;;;;;9.80;8.77;;;25.60;99.90;;;;;;5133180;27;20138;-63
2023/08/19 11:05:47;;;;;;;10.75;8.88;;;25.70;99.90;;;;;;5133391;27;20145;-63
2023/08/19 11:08:12;;;;;;;11.38;8.65;;;25.70;99.90;;;;;;5132900;27;20049;-63
2023/08/19 11:10:38;;;;;;;10.80;8.88;;;25.60;99.90;;;;;;5133640;27;20427;-63
2023/08/19 11:13:05;;;;;;;11.52;9.00;;;25.60;99.90;;;;;;5133244;27;20051;-63
2023/08/19 11:15:31;;;;;;;10.80;9.73;;;25.60;99.90;;;;;;5133367;27;20477;-63
2023/08/19 11:17:56;;;;;;;12.15;9.55;;;25.60;99.90;;;;;;5151767;27;20075;-63
2023/08/19 11:20:28;;;;;;;12.00;10.70;;;25.70;99.90;;;;;;5132908;27;20429;-63
2023/08/19 11:22:55;;;;;;;13.75;9.98;;;25.80;99.90;;;;;;5133604;27;20538;-63
2023/08/19 11:25:20;;;;;;;11.50;10.30;;;26.10;99.90;;;;;;5133209;27;20549;-63
2023/08/19 11:27:46;;;;;;;15.02;10.82;;;26.10;99.90;;;;;;5131205;27;20300;-63
2023/08/19 11:30:16;;;;;;;12.30;10.82;;;26.20;99.90;;;;;;5112361;27;20039;-63
2023/08/19 11:32:46;;;;;;;13.93;12.38;;;26.40;99.90;;;;;;5131030;27;20036;-63
2023/08/19 11:35:12;;;;;;;14.35;11.90;;;26.50;99.90;;;;;;5112497;27;20438;-63
2023/08/19 11:37:40;;;;;;;16.30;13.32;;;26.70;99.90;;;;;;5112324;27;20085;-63
2023/08/19 11:40:06;;;;;;;16.40;14.80;;;26.80;99.90;;;;;;5112617;28;20462;-63
2023/08/19 11:42:32;;;;;;;18.00;16.00;;;26.80;99.90;;;;;;5112845;28;20048;-63
2023/08/19 11:44:57;;;;;;;18.58;16.67;;;26.70;99.90;;;;;;5095854;28;20051;-63
2023/08/19 11:47:24;;;;;;;18.38;16.38;;;26.60;99.90;;;;;;5112623;28;20044;-63
2023/08/19 11:49:50;;;;;;;26.15;21.70;;;26.50;99.90;;;;;;5114303;28;20043;-63
2023/08/19 11:52:20;;;;;;;29.08;25.95;;;26.20;99.90;;;;;;5112795;28;20070;-63
2023/08/19 11:55:03;;;;;;;29.73;26.52;;;26.00;99.90;;;;;;5112895;28;20040;-63
2023/08/19 11:57:35;;;;;;;30.38;26.98;;;25.90;99.90;;;;;;5113837;28;20032;-63
2023/08/19 12:00:04;;;;;;;31.55;28.20;;;25.80;99.90;;;;;;5113129;28;20371;-63
2023/08/19 12:02:30;;;;;;;33.85;30.35;;;25.70;99.90;;;;;;5112537;28;21289;-63
2023/08/19 12:04:56;;;;;;;34.60;29.45;;;25.50;99.90;;;;;;5112854;28;20044;-63
2023/08/19 12:07:28;;;;;;;33.05;29.35;;;25.40;99.90;;;;;;5112386;28;20119;-62
2023/08/19 12:09:59;;;;;;;34.47;30.88;;;25.20;99.90;;;;;;5112546;27;20043;-62
2023/08/19 12:12:26;;;;;;;;;;;25.20;99.90;;;;;;5095699;28;20055;-63
2023/08/19 12:14:52;;;;;;;35.72;29.98;;;25.10;99.90;;;;;;5112599;28;19916;-63
2023/08/19 12:17:18;;;;;;;33.25;29.65;;;25.10;99.90;;;;;;5113875;28;20055;-63
2023/08/19 12:19:47;;;;;;;34.05;28.80;;;25.00;99.90;;;;;;5113548;28;20043;-62
2023/08/19 12:22:13;;;;;;;33.88;28.52;;;25.00;99.90;;;;;;5112284;28;20071;-63
2023/08/19 12:24:41;;;;;;;29.98;26.05;;;24.80;99.90;;;;;;5111868;28;20036;-63
2023/08/19 12:27:07;;;;;;;33.50;24.90;;;24.70;99.90;;;;;;5112361;28;20044;-63
2023/08/19 12:29:33;;;;;;;24.27;19.25;;;24.60;99.90;;;;;;5112272;28;20089;-63
2023/08/19 12:31:58;;;;;;;20.65;17.88;;;24.40;99.90;;;;;;5113458;28;20428;-63
2023/08/19 12:34:24;;;;;;;22.65;17.92;;;24.40;99.90;;;;;;5111879;28;20035;-63